sensor_id;sensor_type;location;lat;lon;timestamp;P1;durP1;ratioP1;P2;durP2;ratioP2
29302;SDS011;60019;45.556;12.004;2023-07-22T00:03:55;3.50;;;2.80;;
29302;SDS011;60019;45.556;12.004;2023-07-22T00:09:57;3.03;;;2.70;;
29302;SDS011;60019;45.556;12.004;2023-07-22T00:15:59;3.45;;;2.85;;
29302;SDS011;60019;45.556;12.004;2023-07-22T00:22:01;3.58;;;2.22;;
29302;SDS011;60019;45.556;12.004;2023-07-22T00:28:02;4.35;;;2.22;;
29302;SDS011;60019;45.556;12.004;2023-07-22T00:34:08;3.40;;;2.13;;
29302;SDS011;60019;45.556;12.004;2023-07-22T00:40:10;2.45;;;2.25;;
29302;SDS011;60019;45.556;12.004;2023-07-22T00:46:12;2.95;;;2.40;;
29302;SDS011;60019;45.556;12.004;2023-07-22T00:52:14;4.65;;;2.70;;
29302;SDS011;60019;45.556;12.004;2023-07-22T00:58:17;2.70;;;2.50;;
29302;SDS011;60019;45.556;12.004;2023-07-22T01:04:19;3.90;;;2.20;;
29302;SDS011;60019;45.556;12.004;2023-07-22T01:10:22;4.30;;;2.25;;
29302;SDS011;60019;45.556;12.004;2023-07-22T01:16:25;4.03;;;2.42;;
29302;SDS011;60019;45.556;12.004;2023-07-22T01:22:27;5.22;;;2.53;;
29302;SDS011;60019;45.556;12.004;2023-07-22T01:28:30;3.90;;;2.03;;
29302;SDS011;60019;45.556;12.004;2023-07-22T01:34:32;2.53;;;2.22;;
29302;SDS011;60019;45.556;12.004;2023-07-22T01:40:34;2.80;;;1.88;;
29302;SDS011;60019;45.556;12.004;2023-07-22T01:46:36;5.38;;;2.88;;
29302;SDS011;60019;45.556;12.004;2023-07-22T01:52:38;2.78;;;1.98;;
29302;SDS011;60019;45.556;12.004;2023-07-22T01:58:40;4.22;;;2.25;;
29302;SDS011;60019;45.556;12.004;2023-07-22T02:04:41;3.28;;;2.08;;
29302;SDS011;60019;45.556;12.004;2023-07-22T02:10:43;2.88;;;2.08;;
29302;SDS011;60019;45.556;12.004;2023-07-22T02:16:45;2.65;;;2.05;;
29302;SDS011;60019;45.556;12.004;2023-07-22T02:22:46;2.95;;;2.53;;
29302;SDS011;60019;45.556;12.004;2023-07-22T02:28:48;2.75;;;2.28;;
29302;SDS011;60019;45.556;12.004;2023-07-22T02:34:50;2.63;;;2.20;;
29302;SDS011;60019;45.556;12.004;2023-07-22T02:40:52;3.13;;;2.25;;
29302;SDS011;60019;45.556;12.004;2023-07-22T02:46:53;3.15;;;2.08;;
29302;SDS011;60019;45.556;12.004;2023-07-22T02:52:55;2.00;;;1.80;;
29302;SDS011;60019;45.556;12.004;2023-07-22T02:58:57;2.05;;;1.85;;
29302;SDS011;60019;45.556;12.004;2023-07-22T03:04:59;2.15;;;1.83;;
29302;SDS011;60019;45.556;12.004;2023-07-22T03:11:01;2.58;;;2.10;;
29302;SDS011;60019;45.556;12.004;2023-07-22T03:17:02;3.47;;;2.50;;
29302;SDS011;60019;45.556;12.004;2023-07-22T03:23:05;1.80;;;1.60;;
29302;SDS011;60019;45.556;12.004;2023-07-22T03:29:06;2.47;;;2.10;;
29302;SDS011;60019;45.556;12.004;2023-07-22T03:35:08;2.58;;;1.90;;
29302;SDS011;60019;45.556;12.004;2023-07-22T03:41:11;3.97;;;2.00;;
29302;SDS011;60019;45.556;12.004;2023-07-22T03:47:13;2.70;;;1.92;;
29302;SDS011;60019;45.556;12.004;2023-07-22T03:53:15;3.08;;;2.78;;
29302;SDS011;60019;45.556;12.004;2023-07-22T03:59:16;4.82;;;2.22;;
29302;SDS011;60019;45.556;12.004;2023-07-22T04:05:18;3.67;;;2.53;;
29302;SDS011;60019;45.556;12.004;2023-07-22T04:11:20;4.43;;;2.15;;
29302;SDS011;60019;45.556;12.004;2023-07-22T04:17:21;2.95;;;2.28;;
29302;SDS011;60019;45.556;12.004;2023-07-22T04:23:23;3.85;;;2.15;;
29302;SDS011;60019;45.556;12.004;2023-07-22T04:29:25;2.10;;;1.70;;
29302;SDS011;60019;45.556;12.004;2023-07-22T04:35:26;1.92;;;1.80;;
29302;SDS011;60019;45.556;12.004;2023-07-22T04:41:28;2.10;;;1.90;;
29302;SDS011;60019;45.556;12.004;2023-07-22T04:47:30;2.40;;;2.00;;
29302;SDS011;60019;45.556;12.004;2023-07-22T04:53:32;2.78;;;1.80;;
29302;SDS011;60019;45.556;12.004;2023-07-22T04:59:34;2.10;;;1.88;;
29302;SDS011;60019;45.556;12.004;2023-07-22T05:05:36;2.88;;;1.90;;
29302;SDS011;60019;45.556;12.004;2023-07-22T05:11:37;2.72;;;1.95;;
29302;SDS011;60019;45.556;12.004;2023-07-22T05:17:39;2.28;;;2.08;;
29302;SDS011;60019;45.556;12.004;2023-07-22T05:23:41;2.10;;;1.90;;
29302;SDS011;60019;45.556;12.004;2023-07-22T05:29:43;3.75;;;2.13;;
29302;SDS011;60019;45.556;12.004;2023-07-22T05:35:46;4.65;;;2.10;;
29302;SDS011;60019;45.556;12.004;2023-07-22T05:41:47;1.92;;;1.65;;
29302;SDS011;60019;45.556;12.004;2023-07-22T05:47:49;2.47;;;2.10;;
29302;SDS011;60019;45.556;12.004;2023-07-22T05:53:51;2.35;;;2.00;;
29302;SDS011;60019;45.556;12.004;2023-07-22T05:59:53;4.22;;;2.28;;
29302;SDS011;60019;45.556;12.004;2023-07-22T06:05:54;2.75;;;2.05;;
29302;SDS011;60019;45.556;12.004;2023-07-22T06:11:56;2.00;;;1.73;;
29302;SDS011;60019;45.556;12.004;2023-07-22T06:17:58;4.75;;;3.20;;
29302;SDS011;60019;45.556;12.004;2023-07-22T06:24:00;4.20;;;3.10;;
29302;SDS011;60019;45.556;12.004;2023-07-22T06:30:02;3.65;;;2.63;;
29302;SDS011;60019;45.556;12.004;2023-07-22T06:36:03;4.50;;;3.10;;
29302;SDS011;60019;45.556;12.004;2023-07-22T06:42:05;4.45;;;3.17;;
29302;SDS011;60019;45.556;12.004;2023-07-22T06:48:07;4.28;;;3.38;;
29302;SDS011;60019;45.556;12.004;2023-07-22T06:54:08;10.30;;;3.00;;
29302;SDS011;60019;45.556;12.004;2023-07-22T07:00:10;2.92;;;2.63;;
29302;SDS011;60019;45.556;12.004;2023-07-22T07:06:12;3.13;;;2.40;;
29302;SDS011;60019;45.556;12.004;2023-07-22T07:12:14;4.68;;;2.90;;
29302;SDS011;60019;45.556;12.004;2023-07-22T07:18:16;6.93;;;3.17;;
29302;SDS011;60019;45.556;12.004;2023-07-22T07:24:18;3.70;;;2.42;;
29302;SDS011;60019;45.556;12.004;2023-07-22T07:30:20;4.80;;;3.10;;
29302;SDS011;60019;45.556;12.004;2023-07-22T07:36:22;5.10;;;3.28;;
29302;SDS011;60019;45.556;12.004;2023-07-22T07:42:23;3.85;;;2.50;;
29302;SDS011;60019;45.556;12.004;2023-07-22T07:48:25;3.50;;;2.50;;
29302;SDS011;60019;45.556;12.004;2023-07-22T07:54:27;7.05;;;2.22;;
29302;SDS011;60019;45.556;12.004;2023-07-22T08:00:28;2.95;;;2.58;;
29302;SDS011;60019;45.556;12.004;2023-07-22T08:06:30;3.53;;;2.53;;
29302;SDS011;60019;45.556;12.004;2023-07-22T08:12:32;3.72;;;2.55;;
29302;SDS011;60019;45.556;12.004;2023-07-22T08:18:34;4.70;;;3.00;;
29302;SDS011;60019;45.556;12.004;2023-07-22T08:24:36;3.55;;;2.70;;
29302;SDS011;60019;45.556;12.004;2023-07-22T08:30:38;3.72;;;2.47;;
29302;SDS011;60019;45.556;12.004;2023-07-22T08:36:41;5.32;;;2.70;;
29302;SDS011;60019;45.556;12.004;2023-07-22T08:42:43;4.03;;;2.60;;
29302;SDS011;60019;45.556;12.004;2023-07-22T08:48:46;3.00;;;2.70;;
29302;SDS011;60019;45.556;12.004;2023-07-22T08:54:51;5.65;;;2.42;;
29302;SDS011;60019;45.556;12.004;2023-07-22T09:00:53;4.07;;;2.55;;
29302;SDS011;60019;45.556;12.004;2023-07-22T09:06:55;6.32;;;3.22;;
29302;SDS011;60019;45.556;12.004;2023-07-22T09:12:59;3.25;;;2.63;;
29302;SDS011;60019;45.556;12.004;2023-07-22T09:19:02;7.43;;;2.85;;
29302;SDS011;60019;45.556;12.004;2023-07-22T09:25:15;3.75;;;2.53;;
29302;SDS011;60019;45.556;12.004;2023-07-22T09:31:17;4.18;;;2.88;;
29302;SDS011;60019;45.556;12.004;2023-07-22T09:37:19;3.50;;;2.72;;
29302;SDS011;60019;45.556;12.004;2023-07-22T09:43:21;5.95;;;2.65;;
29302;SDS011;60019;45.556;12.004;2023-07-22T09:49:24;3.28;;;2.20;;
29302;SDS011;60019;45.556;12.004;2023-07-22T09:55:27;2.90;;;2.60;;
29302;SDS011;60019;45.556;12.004;2023-07-22T10:01:29;4.35;;;2.72;;
29302;SDS011;60019;45.556;12.004;2023-07-22T10:07:32;3.72;;;2.70;;
29302;SDS011;60019;45.556;12.004;2023-07-22T10:13:34;4.10;;;2.83;;
29302;SDS011;60019;45.556;12.004;2023-07-22T10:19:36;2.55;;;2.22;;
29302;SDS011;60019;45.556;12.004;2023-07-22T10:25:38;2.70;;;2.40;;
29302;SDS011;60019;45.556;12.004;2023-07-22T10:31:40;5.07;;;2.47;;
29302;SDS011;60019;45.556;12.004;2023-07-22T10:37:44;2.13;;;1.92;;
29302;SDS011;60019;45.556;12.004;2023-07-22T10:43:55;2.75;;;2.28;;
29302;SDS011;60019;45.556;12.004;2023-07-22T10:49:58;2.97;;;2.28;;
29302;SDS011;60019;45.556;12.004;2023-07-22T11:02:23;2.50;;;2.00;;
29302;SDS011;60019;45.556;12.004;2023-07-22T11:08:39;4.82;;;2.35;;
29302;SDS011;60019;45.556;12.004;2023-07-22T11:20:52;2.28;;;2.08;;
29302;SDS011;60019;45.556;12.004;2023-07-22T11:26:54;3.58;;;2.10;;
29302;SDS011;60019;45.556;12.004;2023-07-22T11:32:57;2.55;;;2.35;;
29302;SDS011;60019;45.556;12.004;2023-07-22T11:39:06;3.13;;;2.60;;
29302;SDS011;60019;45.556;12.004;2023-07-22T11:45:09;9.27;;;4.00;;
29302;SDS011;60019;45.556;12.004;2023-07-22T11:51:24;6.80;;;4.32;;
29302;SDS011;60019;45.556;12.004;2023-07-22T11:57:29;5.13;;;3.33;;
29302;SDS011;60019;45.556;12.004;2023-07-22T12:03:34;5.22;;;2.60;;
29302;SDS011;60019;45.556;12.004;2023-07-22T12:09:36;4.95;;;3.05;;
29302;SDS011;60019;45.556;12.004;2023-07-22T12:15:38;8.20;;;2.83;;
29302;SDS011;60019;45.556;12.004;2023-07-22T12:21:39;3.97;;;3.20;;
29302;SDS011;60019;45.556;12.004;2023-07-22T12:27:41;3.33;;;2.90;;
29302;SDS011;60019;45.556;12.004;2023-07-22T12:33:43;5.85;;;3.13;;
29302;SDS011;60019;45.556;12.004;2023-07-22T12:39:46;4.35;;;3.08;;
29302;SDS011;60019;45.556;12.004;2023-07-22T12:45:47;7.30;;;3.17;;
29302;SDS011;60019;45.556;12.004;2023-07-22T12:51:49;6.20;;;3.72;;
29302;SDS011;60019;45.556;12.004;2023-07-22T12:57:51;5.85;;;3.15;;
29302;SDS011;60019;45.556;12.004;2023-07-22T13:03:53;5.00;;;3.78;;
29302;SDS011;60019;45.556;12.004;2023-07-22T13:09:55;4.70;;;2.88;;
29302;SDS011;60019;45.556;12.004;2023-07-22T13:16:01;18.80;;;10.48;;
29302;SDS011;60019;45.556;12.004;2023-07-22T13:22:03;16.08;;;9.55;;
29302;SDS011;60019;45.556;12.004;2023-07-22T13:28:05;12.55;;;7.82;;
29302;SDS011;60019;45.556;12.004;2023-07-22T13:34:07;13.02;;;7.07;;
29302;SDS011;60019;45.556;12.004;2023-07-22T13:40:09;16.05;;;9.73;;
29302;SDS011;60019;45.556;12.004;2023-07-22T13:46:11;16.13;;;8.43;;
29302;SDS011;60019;45.556;12.004;2023-07-22T13:52:13;9.80;;;6.55;;
29302;SDS011;60019;45.556;12.004;2023-07-22T13:58:15;8.65;;;5.95;;
29302;SDS011;60019;45.556;12.004;2023-07-22T14:04:16;8.50;;;5.70;;
29302;SDS011;60019;45.556;12.004;2023-07-22T14:10:18;10.38;;;5.50;;
29302;SDS011;60019;45.556;12.004;2023-07-22T14:16:20;8.88;;;5.80;;
29302;SDS011;60019;45.556;12.004;2023-07-22T14:22:22;7.50;;;4.78;;
29302;SDS011;60019;45.556;12.004;2023-07-22T14:28:24;8.60;;;5.15;;
29302;SDS011;60019;45.556;12.004;2023-07-22T14:34:25;8.30;;;5.38;;
29302;SDS011;60019;45.556;12.004;2023-07-22T14:40:28;9.32;;;5.10;;
29302;SDS011;60019;45.556;12.004;2023-07-22T14:46:30;7.45;;;4.70;;
29302;SDS011;60019;45.556;12.004;2023-07-22T14:52:32;6.93;;;4.35;;
29302;SDS011;60019;45.556;12.004;2023-07-22T14:58:33;4.40;;;3.78;;
29302;SDS011;60019;45.556;12.004;2023-07-22T15:04:35;5.32;;;3.63;;
29302;SDS011;60019;45.556;12.004;2023-07-22T15:10:37;8.23;;;4.63;;
29302;SDS011;60019;45.556;12.004;2023-07-22T15:16:39;5.20;;;3.95;;
29302;SDS011;60019;45.556;12.004;2023-07-22T15:22:41;14.63;;;4.95;;
29302;SDS011;60019;45.556;12.004;2023-07-22T15:28:43;4.93;;;3.75;;
29302;SDS011;60019;45.556;12.004;2023-07-22T15:34:45;5.32;;;3.42;;
29302;SDS011;60019;45.556;12.004;2023-07-22T15:40:47;5.95;;;3.72;;
29302;SDS011;60019;45.556;12.004;2023-07-22T15:46:49;4.43;;;3.28;;
29302;SDS011;60019;45.556;12.004;2023-07-22T15:52:50;5.78;;;3.83;;
29302;SDS011;60019;45.556;12.004;2023-07-22T15:58:54;4.88;;;3.20;;
29302;SDS011;60019;45.556;12.004;2023-07-22T16:04:55;6.20;;;3.70;;
29302;SDS011;60019;45.556;12.004;2023-07-22T16:10:57;4.88;;;3.63;;
29302;SDS011;60019;45.556;12.004;2023-07-22T16:16:59;4.63;;;3.53;;
29302;SDS011;60019;45.556;12.004;2023-07-22T16:23:01;3.78;;;3.38;;
29302;SDS011;60019;45.556;12.004;2023-07-22T16:29:04;3.95;;;3.22;;
29302;SDS011;60019;45.556;12.004;2023-07-22T16:35:06;3.83;;;3.22;;
29302;SDS011;60019;45.556;12.004;2023-07-22T16:41:08;4.07;;;3.25;;
29302;SDS011;60019;45.556;12.004;2023-07-22T16:47:10;5.88;;;3.75;;
29302;SDS011;60019;45.556;12.004;2023-07-22T16:53:12;4.88;;;3.20;;
29302;SDS011;60019;45.556;12.004;2023-07-22T16:59:13;3.35;;;3.05;;
29302;SDS011;60019;45.556;12.004;2023-07-22T17:05:15;4.00;;;2.60;;
29302;SDS011;60019;45.556;12.004;2023-07-22T17:11:17;4.13;;;3.17;;
29302;SDS011;60019;45.556;12.004;2023-07-22T17:17:19;3.65;;;2.92;;
29302;SDS011;60019;45.556;12.004;2023-07-22T17:23:20;4.10;;;3.55;;
29302;SDS011;60019;45.556;12.004;2023-07-22T17:29:22;4.75;;;2.90;;
29302;SDS011;60019;45.556;12.004;2023-07-22T17:35:24;3.92;;;2.90;;
29302;SDS011;60019;45.556;12.004;2023-07-22T17:41:26;3.45;;;3.15;;
29302;SDS011;60019;45.556;12.004;2023-07-22T17:47:27;3.50;;;3.20;;
29302;SDS011;60019;45.556;12.004;2023-07-22T17:53:29;3.33;;;2.80;;
29302;SDS011;60019;45.556;12.004;2023-07-22T17:59:31;4.50;;;3.10;;
29302;SDS011;60019;45.556;12.004;2023-07-22T18:05:33;3.33;;;2.90;;
29302;SDS011;60019;45.556;12.004;2023-07-22T18:11:34;3.80;;;2.90;;
29302;SDS011;60019;45.556;12.004;2023-07-22T18:17:36;5.57;;;2.90;;
29302;SDS011;60019;45.556;12.004;2023-07-22T18:23:38;5.28;;;3.30;;
29302;SDS011;60019;45.556;12.004;2023-07-22T18:29:39;4.10;;;3.15;;
29302;SDS011;60019;45.556;12.004;2023-07-22T18:35:45;4.30;;;3.20;;
29302;SDS011;60019;45.556;12.004;2023-07-22T18:41:47;3.38;;;3.08;;
29302;SDS011;60019;45.556;12.004;2023-07-22T18:47:49;3.42;;;3.13;;
29302;SDS011;60019;45.556;12.004;2023-07-22T18:53:51;3.78;;;3.22;;
29302;SDS011;60019;45.556;12.004;2023-07-22T18:59:52;3.83;;;3.30;;
29302;SDS011;60019;45.556;12.004;2023-07-22T19:05:54;4.00;;;3.60;;
29302;SDS011;60019;45.556;12.004;2023-07-22T19:11:56;4.40;;;3.75;;
29302;SDS011;60019;45.556;12.004;2023-07-22T19:17:58;4.25;;;3.30;;
29302;SDS011;60019;45.556;12.004;2023-07-22T19:24:00;5.88;;;3.72;;
29302;SDS011;60019;45.556;12.004;2023-07-22T19:30:02;7.28;;;3.95;;
29302;SDS011;60019;45.556;12.004;2023-07-22T19:36:05;4.20;;;3.20;;
29302;SDS011;60019;45.556;12.004;2023-07-22T19:42:07;4.43;;;3.65;;
29302;SDS011;60019;45.556;12.004;2023-07-22T19:48:09;8.13;;;4.53;;
29302;SDS011;60019;45.556;12.004;2023-07-22T19:54:10;7.20;;;4.13;;
29302;SDS011;60019;45.556;12.004;2023-07-22T20:00:12;9.27;;;6.75;;
29302;SDS011;60019;45.556;12.004;2023-07-22T20:06:14;7.60;;;6.47;;
29302;SDS011;60019;45.556;12.004;2023-07-22T20:12:16;8.15;;;5.22;;
29302;SDS011;60019;45.556;12.004;2023-07-22T20:18:18;7.60;;;5.05;;
29302;SDS011;60019;45.556;12.004;2023-07-22T20:24:19;8.43;;;4.93;;
29302;SDS011;60019;45.556;12.004;2023-07-22T20:30:22;8.93;;;5.97;;
29302;SDS011;60019;45.556;12.004;2023-07-22T20:36:24;7.55;;;5.60;;
29302;SDS011;60019;45.556;12.004;2023-07-22T20:42:26;8.68;;;6.70;;
29302;SDS011;60019;45.556;12.004;2023-07-22T20:48:28;7.63;;;6.50;;
29302;SDS011;60019;45.556;12.004;2023-07-22T20:54:30;12.43;;;7.07;;
29302;SDS011;60019;45.556;12.004;2023-07-22T21:00:32;11.50;;;7.85;;
29302;SDS011;60019;45.556;12.004;2023-07-22T21:06:34;10.40;;;7.07;;
29302;SDS011;60019;45.556;12.004;2023-07-22T21:12:37;17.40;;;8.52;;
29302;SDS011;60019;45.556;12.004;2023-07-22T21:18:39;12.43;;;6.60;;
29302;SDS011;60019;45.556;12.004;2023-07-22T21:24:41;9.40;;;6.30;;
29302;SDS011;60019;45.556;12.004;2023-07-22T21:30:43;8.00;;;4.97;;
29302;SDS011;60019;45.556;12.004;2023-07-22T21:36:45;11.00;;;6.22;;
29302;SDS011;60019;45.556;12.004;2023-07-22T21:42:46;6.50;;;4.45;;
29302;SDS011;60019;45.556;12.004;2023-07-22T21:48:49;7.50;;;5.53;;
29302;SDS011;60019;45.556;12.004;2023-07-22T21:54:51;8.30;;;4.97;;
29302;SDS011;60019;45.556;12.004;2023-07-22T22:00:52;7.60;;;5.15;;
29302;SDS011;60019;45.556;12.004;2023-07-22T22:06:54;6.50;;;4.93;;
29302;SDS011;60019;45.556;12.004;2023-07-22T22:12:56;9.48;;;6.13;;
29302;SDS011;60019;45.556;12.004;2023-07-22T22:18:58;9.07;;;4.78;;
29302;SDS011;60019;45.556;12.004;2023-07-22T22:24:59;8.07;;;4.85;;
29302;SDS011;60019;45.556;12.004;2023-07-22T22:31:01;10.75;;;4.45;;
29302;SDS011;60019;45.556;12.004;2023-07-22T22:37:03;8.65;;;5.20;;
29302;SDS011;60019;45.556;12.004;2023-07-22T22:43:05;6.82;;;4.05;;
29302;SDS011;60019;45.556;12.004;2023-07-22T22:49:07;11.57;;;5.00;;
29302;SDS011;60019;45.556;12.004;2023-07-22T22:55:09;10.52;;;5.60;;
29302;SDS011;60019;45.556;12.004;2023-07-22T23:01:15;8.52;;;5.00;;
29302;SDS011;60019;45.556;12.004;2023-07-22T23:07:16;7.40;;;4.80;;
29302;SDS011;60019;45.556;12.004;2023-07-22T23:13:18;9.02;;;5.35;;
29302;SDS011;60019;45.556;12.004;2023-07-22T23:19:20;6.70;;;4.72;;
29302;SDS011;60019;45.556;12.004;2023-07-22T23:25:22;5.88;;;4.55;;
29302;SDS011;60019;45.556;12.004;2023-07-22T23:31:24;7.15;;;4.95;;
29302;SDS011;60019;45.556;12.004;2023-07-22T23:37:25;5.72;;;4.20;;
29302;SDS011;60019;45.556;12.004;2023-07-22T23:43:27;6.22;;;4.72;;
29302;SDS011;60019;45.556;12.004;2023-07-22T23:49:29;5.72;;;4.05;;
29302;SDS011;60019;45.556;12.004;2023-07-22T23:55:31;8.00;;;4.07;;
